createdAt,value
2018-10-18T00:00:00.637Z,19.03
2018-10-18T00:02:32.966Z,19.07
2018-10-18T00:05:06.956Z,17.47
2018-10-18T00:07:39.377Z,15.47
2018-10-18T00:10:11.710Z,18.13
2018-10-18T00:12:43.991Z,19.63
2018-10-18T00:15:16.270Z,19.53
2018-10-18T00:17:48.552Z,19.50
2018-10-18T00:20:20.792Z,18.90
2018-10-18T00:22:53.067Z,16.00
2018-10-18T00:25:25.283Z,18.10
2018-10-18T00:27:57.580Z,20.83
2018-10-18T00:30:29.830Z,18.80
2018-10-18T00:33:02.126Z,16.07
2018-10-18T00:35:34.493Z,17.97
2018-10-18T00:38:07.505Z,18.97
2018-10-18T00:40:39.705Z,17.13
2018-10-18T00:43:12.222Z,17.83
2018-10-18T00:45:44.553Z,20.10
2018-10-18T00:48:16.991Z,17.47
2018-10-18T00:50:49.160Z,17.73
2018-10-18T00:53:21.505Z,20.77
2018-10-18T00:55:53.786Z,17.90
2018-10-18T00:58:26.049Z,20.60
2018-10-18T01:00:58.397Z,20.17
2018-10-18T01:03:30.848Z,19.20
2018-10-18T01:06:03.404Z,20.27
2018-10-18T01:08:35.901Z,19.53
2018-10-18T01:11:08.184Z,18.83
2018-10-18T01:13:40.473Z,18.23
2018-10-18T01:16:12.748Z,16.53
2018-10-18T01:18:45.069Z,17.50
2018-10-18T01:21:17.593Z,17.70
2018-10-18T01:23:49.861Z,18.50
2018-10-18T01:26:22.202Z,18.10
2018-10-18T01:28:54.518Z,19.43
2018-10-18T01:31:26.816Z,17.20
2018-10-18T01:33:59.095Z,17.93
2018-10-18T01:36:31.390Z,17.53
2018-10-18T01:39:04.305Z,19.33
2018-10-18T01:41:36.860Z,19.97
2018-10-18T01:44:09.409Z,18.17
2018-10-18T01:46:41.638Z,18.33
2018-10-18T01:49:13.893Z,17.43
2018-10-18T01:51:46.168Z,18.07
2018-10-18T01:54:18.488Z,19.33
2018-10-18T01:56:50.929Z,16.63
2018-10-18T01:59:23.181Z,18.70
2018-10-18T02:01:55.464Z,21.23
2018-10-18T02:04:27.785Z,18.37
2018-10-18T02:07:00.046Z,20.37
2018-10-18T02:09:32.294Z,19.10
2018-10-18T02:12:05.295Z,19.37
2018-10-18T02:14:37.797Z,17.00
2018-10-18T02:17:10.189Z,23.67
2018-10-18T02:19:42.551Z,21.20
2018-10-18T02:22:14.823Z,18.37
2018-10-18T02:24:47.096Z,18.80
2018-10-18T02:27:19.477Z,19.73
2018-10-18T02:29:51.725Z,19.47
2018-10-18T02:32:24.024Z,19.30
2018-10-18T02:34:56.338Z,19.17
2018-10-18T02:37:28.685Z,20.90
2018-10-18T02:40:01.166Z,22.20
2018-10-18T02:42:33.601Z,17.90
2018-10-18T02:45:05.981Z,19.90
2018-10-18T02:47:38.257Z,18.53
2018-10-18T02:50:10.554Z,19.30
2018-10-18T02:52:42.833Z,19.23
2018-10-18T02:55:15.129Z,20.53
2018-10-18T02:57:47.441Z,20.23
2018-10-18T03:00:19.737Z,17.40
2018-10-18T03:02:52.069Z,21.87
2018-10-18T03:05:24.379Z,15.53
2018-10-18T03:07:56.686Z,20.40
2018-10-18T03:10:29.136Z,20.17
2018-10-18T03:13:01.586Z,20.40
2018-10-18T03:15:33.933Z,20.77
2018-10-18T03:18:06.553Z,21.57
2018-10-18T03:20:38.843Z,17.80
2018-10-18T03:23:11.201Z,19.33
2018-10-18T03:25:43.501Z,20.73
2018-10-18T03:28:15.748Z,21.87
2018-10-18T03:30:47.999Z,20.87
2018-10-18T03:33:20.239Z,18.70
2018-10-18T03:35:52.499Z,18.20
2018-10-18T03:38:24.883Z,20.03
2018-10-18T03:40:57.250Z,19.77
2018-10-18T03:43:29.525Z,23.63
2018-10-18T03:46:01.818Z,18.00
2018-10-18T03:48:34.186Z,22.57
2018-10-18T03:51:06.629Z,18.73
2018-10-18T03:53:38.874Z,25.17
2018-10-18T03:56:11.301Z,23.33
2018-10-18T03:58:43.613Z,22.63
2018-10-18T04:01:15.872Z,24.27
2018-10-18T04:03:48.133Z,21.20
2018-10-18T04:06:20.513Z,25.00
2018-10-18T04:08:52.791Z,21.67
2018-10-18T04:11:25.068Z,22.10
2018-10-18T04:13:57.402Z,23.23
2018-10-18T04:16:29.713Z,22.40
2018-10-18T04:19:02.079Z,22.03
2018-10-18T04:21:34.392Z,22.13
2018-10-18T04:24:06.756Z,21.87
2018-10-18T04:26:38.915Z,25.13
2018-10-18T04:29:11.540Z,22.53
2018-10-18T04:31:43.804Z,21.87
2018-10-18T04:34:16.165Z,23.93
2018-10-18T04:36:48.510Z,23.50
2018-10-18T04:39:20.781Z,21.13
2018-10-18T04:41:53.240Z,22.23
2018-10-18T04:44:25.686Z,24.67
2018-10-18T04:46:57.923Z,22.20
2018-10-18T04:49:30.263Z,22.47
2018-10-18T04:52:02.589Z,20.87
2018-10-18T04:54:34.890Z,23.40
2018-10-18T04:57:07.480Z,22.47
2018-10-18T04:59:39.744Z,19.53
2018-10-18T05:02:12.018Z,19.07
2018-10-18T05:04:55.713Z,19.73
2018-10-18T05:07:27.907Z,21.80
2018-10-18T05:10:00.199Z,21.73
2018-10-18T05:12:32.487Z,22.43
2018-10-18T05:15:06.377Z,20.47
2018-10-18T05:17:45.363Z,22.33
2018-10-18T05:20:17.874Z,23.07
2018-10-18T05:22:50.122Z,20.47
2018-10-18T05:25:22.503Z,19.63
2018-10-18T05:27:54.815Z,22.77
2018-10-18T05:30:27.153Z,21.73
2018-10-18T05:32:59.461Z,22.97
2018-10-18T05:35:31.699Z,24.10
2018-10-18T05:38:04.509Z,21.67
2018-10-18T05:40:36.761Z,23.83
2018-10-18T05:43:09.090Z,24.90
2018-10-18T05:45:41.393Z,24.27
2018-10-18T05:48:13.832Z,23.13
2018-10-18T05:50:46.193Z,22.17
2018-10-18T05:53:18.717Z,23.73
2018-10-18T05:55:50.932Z,23.40
2018-10-18T05:58:23.261Z,22.87
2018-10-18T06:00:55.643Z,24.03
2018-10-18T06:03:27.933Z,24.50
2018-10-18T06:06:00.309Z,19.07
2018-10-18T06:08:32.598Z,24.20
2018-10-18T06:11:30.065Z,22.90
2018-10-18T06:14:02.498Z,27.60
2018-10-18T06:16:34.882Z,24.73
2018-10-18T06:19:07.232Z,22.40
2018-10-18T06:21:39.506Z,23.47
2018-10-18T06:24:11.826Z,23.60
2018-10-18T06:26:44.106Z,23.53
2018-10-18T06:29:16.597Z,29.03
2018-10-18T06:31:48.990Z,27.53
2018-10-18T06:34:21.238Z,29.83
2018-10-18T06:36:53.548Z,23.83
2018-10-18T06:39:25.820Z,24.83
2018-10-18T06:41:58.902Z,24.73
2018-10-18T06:44:31.198Z,26.40
2018-10-18T06:47:03.814Z,28.43
2018-10-18T06:49:36.196Z,26.53
2018-10-18T06:52:08.457Z,24.30
2018-10-18T06:54:40.760Z,29.07
2018-10-18T06:57:13.195Z,24.07
2018-10-18T06:59:45.528Z,26.53
2018-10-18T07:02:17.790Z,26.17
2018-10-18T07:04:50.043Z,25.73
2018-10-18T07:07:22.378Z,24.87
2018-10-18T07:09:54.626Z,27.43
2018-10-18T07:12:26.957Z,27.60
2018-10-18T07:14:59.217Z,27.10
2018-10-18T07:17:31.610Z,25.17
2018-10-18T07:20:04.261Z,27.33
2018-10-18T07:22:37.573Z,24.07
2018-10-18T07:25:11.328Z,28.17
2018-10-18T07:27:43.761Z,26.57
2018-10-18T07:30:16.282Z,23.60
2018-10-18T07:32:48.480Z,23.13
2018-10-18T07:35:20.757Z,29.13
2018-10-18T07:37:53.094Z,23.67
2018-10-18T07:40:25.456Z,31.90
2018-10-18T07:42:57.774Z,30.57
2018-10-18T07:45:30.069Z,30.03
2018-10-18T07:48:02.474Z,27.77
2018-10-18T07:50:34.714Z,29.30
2018-10-18T07:53:07.097Z,33.17
2018-10-18T07:55:39.371Z,26.63
2018-10-18T07:58:11.703Z,34.07
2018-10-18T08:00:44.123Z,31.20
2018-10-18T08:03:16.361Z,31.27
2018-10-18T08:05:48.718Z,29.20
2018-10-18T08:08:21.021Z,34.37
2018-10-18T08:10:53.330Z,34.53
2018-10-18T08:13:25.641Z,34.43
2018-10-18T08:15:58.017Z,36.57
2018-10-18T08:18:30.384Z,28.57
2018-10-18T08:21:02.788Z,35.57
2018-10-18T08:23:35.078Z,35.97
2018-10-18T08:26:07.488Z,28.93
2018-10-18T08:28:39.803Z,32.23
2018-10-18T08:31:12.239Z,32.90
2018-10-18T08:33:44.414Z,34.60
2018-10-18T08:36:16.805Z,37.07
2018-10-18T08:38:49.103Z,31.07
2018-10-18T08:41:21.401Z,35.20
2018-10-18T08:43:53.736Z,39.33
2018-10-18T08:46:26.329Z,38.77
2018-10-18T08:48:58.638Z,35.30
2018-10-18T08:51:31.345Z,33.93
2018-10-18T08:54:03.632Z,29.80
2018-10-18T08:56:35.948Z,35.83
2018-10-18T08:59:08.292Z,34.55
2018-10-18T09:01:40.598Z,32.90
2018-10-18T09:04:12.922Z,38.40
2018-10-18T09:06:45.200Z,39.65
2018-10-18T09:09:17.766Z,37.63
2018-10-18T09:11:49.878Z,37.08
2018-10-18T09:14:22.179Z,42.80
2018-10-18T09:16:54.490Z,40.25
2018-10-18T09:19:26.737Z,39.20
2018-10-18T09:21:59.029Z,39.67
2018-10-18T09:24:31.309Z,36.45
2018-10-18T09:27:03.636Z,36.15
2018-10-18T09:29:35.949Z,35.78
2018-10-18T09:32:08.557Z,40.90
2018-10-18T09:34:40.839Z,36.65
2018-10-18T09:37:13.222Z,35.92
2018-10-18T09:39:45.442Z,36.85
2018-10-18T09:42:17.714Z,39.55
2018-10-18T09:44:50.170Z,42.10
2018-10-18T09:47:22.430Z,39.95
2018-10-18T09:49:54.733Z,39.98
2018-10-18T09:52:27.049Z,37.45
2018-10-18T09:54:59.360Z,39.53
2018-10-18T09:57:31.618Z,36.63
2018-10-18T10:00:04.265Z,38.45
2018-10-18T10:02:42.069Z,35.68
2018-10-18T10:05:14.369Z,35.83
2018-10-18T10:07:46.630Z,40.60
2018-10-18T10:10:19.022Z,31.95
2018-10-18T10:12:51.308Z,33.90
2018-10-18T10:15:23.805Z,39.20
2018-10-18T10:17:56.114Z,31.65
2018-10-18T10:20:28.433Z,35.17
2018-10-18T10:23:00.797Z,37.20
2018-10-18T10:25:33.085Z,33.83
2018-10-18T10:28:05.417Z,33.58
2018-10-18T10:30:37.748Z,38.53
2018-10-18T10:33:10.101Z,35.00
2018-10-18T10:35:42.450Z,36.05
2018-10-18T10:38:14.797Z,34.55
2018-10-18T10:40:47.121Z,33.78
2018-10-18T10:43:19.485Z,30.35
2018-10-18T10:45:51.939Z,29.55
2018-10-18T10:48:24.113Z,26.77
2018-10-18T10:50:56.433Z,32.55
2018-10-18T10:53:28.675Z,34.40
2018-10-18T10:56:01.049Z,33.58
2018-10-18T10:58:33.537Z,28.25
2018-10-18T11:01:25.147Z,30.92
2018-10-18T11:03:58.907Z,33.15
2018-10-18T11:06:31.180Z,30.20
2018-10-18T11:09:04.772Z,28.05
2018-10-18T11:11:37.189Z,29.85
2018-10-18T11:14:09.503Z,24.35
2018-10-18T11:16:41.782Z,22.37
2018-10-18T11:19:14.078Z,15.72
2018-10-18T11:21:46.397Z,19.42
2018-10-18T11:24:18.864Z,23.77
2018-10-18T11:26:51.316Z,21.82
2018-10-18T11:29:23.776Z,20.20
2018-10-18T11:31:56.087Z,22.22
2018-10-18T11:34:28.406Z,21.90
2018-10-18T11:37:00.782Z,22.90
2018-10-18T11:39:33.105Z,19.82
2018-10-18T11:42:05.735Z,17.32
2018-10-18T11:44:40.014Z,21.62
2018-10-18T11:47:12.313Z,16.52
2018-10-18T11:49:44.605Z,20.80
2018-10-18T11:52:16.940Z,19.55
2018-10-18T11:54:49.251Z,18.95
2018-10-18T11:57:21.519Z,21.95
2018-10-18T11:59:53.883Z,20.45
2018-10-18T12:02:26.222Z,18.17
2018-10-18T12:04:58.515Z,16.75
2018-10-18T12:07:30.903Z,19.60
2018-10-18T12:10:03.257Z,20.15
2018-10-18T12:12:35.743Z,17.57
2018-10-18T12:15:10.391Z,20.97
2018-10-18T12:17:42.820Z,19.95
2018-10-18T12:20:16.482Z,18.82
2018-10-18T12:22:48.718Z,20.20
2018-10-18T12:25:20.980Z,19.37
2018-10-18T12:27:53.335Z,16.60
2018-10-18T12:30:25.625Z,18.90
2018-10-18T12:32:57.962Z,17.75
2018-10-18T12:35:30.457Z,16.32
2018-10-18T12:38:02.757Z,22.50
2018-10-18T12:40:35.291Z,20.65
2018-10-18T12:43:07.445Z,18.10
2018-10-18T12:45:39.729Z,19.32
2018-10-18T12:48:12.085Z,15.98
2018-10-18T12:50:44.490Z,14.13
2018-10-18T12:53:16.742Z,16.37
2018-10-18T12:55:49.072Z,16.10
2018-10-18T12:58:21.414Z,16.27
2018-10-18T13:00:53.698Z,18.42
2018-10-18T13:03:26.136Z,16.97
2018-10-18T13:05:58.402Z,16.85
2018-10-18T13:08:30.670Z,18.12
2018-10-18T13:11:03.237Z,18.70
2018-10-18T13:13:36.525Z,14.70
2018-10-18T13:16:08.787Z,15.58
2018-10-18T13:18:41.194Z,14.65
2018-10-18T13:21:13.831Z,15.00
2018-10-18T13:23:46.191Z,15.63
2018-10-18T13:26:18.629Z,14.40
2018-10-18T13:28:50.923Z,14.98
2018-10-18T13:31:23.549Z,15.08
2018-10-18T13:33:55.990Z,15.10
2018-10-18T13:36:29.474Z,17.60
2018-10-18T13:39:01.943Z,15.05
2018-10-18T13:41:34.254Z,16.82
2018-10-18T13:44:07.133Z,17.02
2018-10-18T13:46:39.886Z,18.00
2018-10-18T13:49:12.210Z,18.52
2018-10-18T13:51:44.658Z,15.28
2018-10-18T13:54:17.076Z,16.23
2018-10-18T13:56:49.391Z,16.10
2018-10-18T13:59:33.144Z,13.62
2018-10-18T14:02:05.394Z,16.48
2018-10-18T14:04:37.866Z,13.45
2018-10-18T14:07:10.258Z,15.75
2018-10-18T14:09:42.542Z,13.25
2018-10-18T14:12:14.965Z,15.88
2018-10-18T14:14:47.289Z,16.70
2018-10-18T14:17:19.739Z,13.72
2018-10-18T14:19:52.013Z,18.82
2018-10-18T14:22:24.335Z,14.85
2018-10-18T14:24:56.721Z,17.42
2018-10-18T14:27:29.556Z,11.75
2018-10-18T14:30:02.037Z,19.52
2018-10-18T14:32:34.326Z,16.02
2018-10-18T14:35:08.281Z,15.03
2018-10-18T14:37:40.712Z,14.80
2018-10-18T14:40:13.041Z,17.48
2018-10-18T14:42:45.418Z,16.60
2018-10-18T14:45:17.804Z,15.68
2018-10-18T14:47:50.247Z,14.23
2018-10-18T14:50:23.024Z,15.45
2018-10-18T14:52:55.280Z,15.68
2018-10-18T14:55:27.623Z,15.30
2018-10-18T14:58:00.011Z,16.70
2018-10-18T15:00:32.306Z,16.60
2018-10-18T15:03:04.953Z,15.05
2018-10-18T15:05:37.353Z,11.80
2018-10-18T15:08:09.669Z,14.28
2018-10-18T15:10:42.017Z,14.10
2018-10-18T15:13:14.517Z,12.53
2018-10-18T15:15:46.842Z,9.58
2018-10-18T15:18:19.138Z,14.30
2018-10-18T15:20:51.445Z,18.32
2018-10-18T15:23:23.890Z,17.07
2018-10-18T15:25:56.403Z,17.30
2018-10-18T15:28:28.707Z,17.17
2018-10-18T15:31:01.063Z,16.97
2018-10-18T15:33:33.400Z,16.77
2018-10-18T15:36:05.764Z,14.73
2018-10-18T15:38:38.304Z,17.45
2018-10-18T15:41:10.842Z,15.38
2018-10-18T15:43:43.216Z,16.60
2018-10-18T15:46:15.615Z,14.23
2018-10-18T15:48:47.955Z,13.70
2018-10-18T15:51:20.373Z,14.78
2018-10-18T15:53:52.721Z,14.63
2018-10-18T15:56:25.199Z,12.73
2018-10-18T15:58:57.644Z,13.40
2018-10-18T16:01:29.996Z,11.33
2018-10-18T16:04:02.494Z,14.73
2018-10-18T16:06:34.989Z,13.80
2018-10-18T16:09:09.261Z,14.05
2018-10-18T16:11:42.004Z,15.23
2018-10-18T16:14:14.733Z,15.60
2018-10-18T16:16:47.129Z,16.27
2018-10-18T16:19:19.545Z,18.15
2018-10-18T16:21:52.066Z,18.10
2018-10-18T16:24:24.575Z,13.68
2018-10-18T16:26:56.797Z,17.20
2018-10-18T16:29:29.111Z,14.87
2018-10-18T16:32:01.711Z,15.28
2018-10-18T16:34:34.103Z,14.93
2018-10-18T16:37:06.528Z,16.75
2018-10-18T16:39:39.071Z,17.65
2018-10-18T16:42:11.679Z,16.52
2018-10-18T16:44:44.173Z,14.00
2018-10-18T16:47:16.498Z,15.93
2018-10-18T16:49:48.935Z,14.68
2018-10-18T16:52:21.283Z,14.93
2018-10-18T16:54:53.638Z,13.32
2018-10-18T16:57:26.009Z,15.98
2018-10-18T16:59:58.359Z,13.98
2018-10-18T17:02:30.740Z,18.27
2018-10-18T17:05:03.168Z,14.98
2018-10-18T17:07:35.832Z,19.48
2018-10-18T17:10:08.242Z,14.25
2018-10-18T17:12:40.493Z,18.92
2018-10-18T17:15:12.987Z,15.38
2018-10-18T17:17:45.565Z,22.30
2018-10-18T17:20:18.145Z,19.55
2018-10-18T17:22:50.401Z,21.27
2018-10-18T17:25:22.776Z,17.05
2018-10-18T17:27:55.133Z,19.95
2018-10-18T17:30:27.551Z,18.15
2018-10-18T17:32:59.881Z,23.62
2018-10-18T17:35:32.217Z,23.42
2018-10-18T17:38:06.272Z,23.10
2018-10-18T17:40:38.593Z,18.82
2018-10-18T17:43:11.074Z,21.82
2018-10-18T17:45:43.412Z,25.68
2018-10-18T17:48:15.875Z,22.02
2018-10-18T17:50:48.374Z,20.02
2018-10-18T17:53:20.786Z,26.80
2018-10-18T17:55:53.119Z,21.50
2018-10-18T17:58:25.562Z,21.00
2018-10-18T18:00:58.049Z,25.35
2018-10-18T18:03:30.763Z,21.62
2018-10-18T18:06:03.303Z,23.57
2018-10-18T18:08:35.679Z,19.52
2018-10-18T18:11:08.081Z,21.50
2018-10-18T18:13:40.507Z,18.75
2018-10-18T18:16:12.943Z,18.98
2018-10-18T18:18:45.596Z,22.48
2018-10-18T18:21:17.996Z,21.02
2018-10-18T18:23:50.355Z,24.57
2018-10-18T18:26:32.447Z,22.82
2018-10-18T18:28:55.268Z,24.63
2018-10-18T18:31:27.691Z,21.80
2018-10-18T18:34:00.141Z,18.70
2018-10-18T18:36:32.670Z,20.17
2018-10-18T18:39:07.109Z,21.48
2018-10-18T18:41:40.697Z,21.52
2018-10-18T18:44:13.147Z,20.65
2018-10-18T18:46:45.607Z,20.68
2018-10-18T18:49:18.049Z,24.30
2018-10-18T18:51:50.472Z,28.23
2018-10-18T18:54:23.127Z,22.95
2018-10-18T18:56:55.523Z,19.67
2018-10-18T18:59:27.941Z,20.80
2018-10-18T19:02:00.283Z,19.20
2018-10-18T19:04:32.655Z,18.30
2018-10-18T19:07:05.074Z,17.40
2018-10-18T19:09:37.571Z,25.95
2018-10-18T19:12:10.014Z,21.45
2018-10-18T19:14:42.434Z,21.12
2018-10-18T19:17:14.748Z,22.75
2018-10-18T19:19:47.198Z,19.40
2018-10-18T19:22:19.782Z,22.35
2018-10-18T19:24:52.873Z,19.65
2018-10-18T19:27:25.296Z,20.60
2018-10-18T19:29:57.642Z,20.37
2018-10-18T19:32:30.089Z,21.70
2018-10-18T19:35:02.512Z,20.50
2018-10-18T19:37:35.224Z,21.70
2018-10-18T19:40:08.218Z,21.15
2018-10-18T19:42:40.608Z,21.27
2018-10-18T19:45:13.006Z,23.80
2018-10-18T19:47:45.595Z,25.40
2018-10-18T19:50:18.102Z,25.47
2018-10-18T19:52:50.539Z,23.47
2018-10-18T19:55:22.974Z,24.98
2018-10-18T19:57:55.659Z,23.70
2018-10-18T20:00:28.230Z,23.93
2018-10-18T20:03:00.557Z,23.70
2018-10-18T20:05:32.921Z,21.77
2018-10-18T20:08:05.476Z,28.03
2018-10-18T20:10:37.846Z,26.67
2018-10-18T20:13:10.519Z,27.07
2018-10-18T20:15:42.932Z,24.07
2018-10-18T20:18:15.434Z,21.73
2018-10-18T20:20:47.682Z,24.10
2018-10-18T20:23:20.001Z,25.73
2018-10-18T20:25:52.803Z,24.87
2018-10-18T20:28:25.021Z,25.00
2018-10-18T20:30:57.367Z,25.77
2018-10-18T20:33:29.692Z,23.20
2018-10-18T20:36:02.177Z,23.13
2018-10-18T20:38:34.662Z,20.87
2018-10-18T20:41:07.086Z,24.97
2018-10-18T20:43:39.539Z,21.27
2018-10-18T20:46:11.882Z,23.10
2018-10-18T20:48:44.231Z,22.20
2018-10-18T20:51:16.596Z,21.47
2018-10-18T20:53:48.935Z,25.70
2018-10-18T20:56:21.245Z,23.07
2018-10-18T20:58:53.562Z,25.70
2018-10-18T21:01:25.870Z,25.30
2018-10-18T21:03:58.178Z,25.40
2018-10-18T21:06:30.763Z,22.80
2018-10-18T21:09:03.802Z,24.10
2018-10-18T21:11:36.197Z,25.33
2018-10-18T21:14:08.466Z,26.03
2018-10-18T21:16:40.789Z,27.23
2018-10-18T21:19:13.046Z,25.73
2018-10-18T21:21:45.402Z,21.43
2018-10-18T21:24:17.721Z,22.93
2018-10-18T21:26:50.224Z,26.80
2018-10-18T21:29:22.518Z,27.47
2018-10-18T21:31:54.933Z,25.80
2018-10-18T21:34:27.269Z,26.53
2018-10-18T21:36:59.598Z,24.27
2018-10-18T21:39:33.166Z,31.60
2018-10-18T21:42:05.509Z,28.87
2018-10-18T21:44:37.932Z,28.00
2018-10-18T21:47:11.121Z,24.33
2018-10-18T21:49:43.546Z,27.30
2018-10-18T21:52:16.006Z,27.93
2018-10-18T21:54:48.294Z,25.27
2018-10-18T21:57:20.690Z,24.70
2018-10-18T21:59:52.999Z,30.93
2018-10-18T22:02:25.335Z,29.37
2018-10-18T22:04:57.630Z,24.00
2018-10-18T22:07:29.901Z,26.83
2018-10-18T22:10:02.253Z,26.10
2018-10-18T22:12:34.747Z,25.80
2018-10-18T22:15:08.640Z,24.27
2018-10-18T22:17:41.063Z,27.77
2018-10-18T22:20:13.369Z,26.90
2018-10-18T22:22:45.686Z,30.30
2018-10-18T22:25:18.028Z,27.47
2018-10-18T22:27:50.361Z,28.70
2018-10-18T22:30:22.677Z,27.57
2018-10-18T22:32:55.081Z,25.20
2018-10-18T22:35:27.346Z,24.53
2018-10-18T22:37:59.686Z,27.57
2018-10-18T22:40:32.023Z,23.90
2018-10-18T22:43:04.649Z,22.33
2018-10-18T22:45:36.970Z,26.67
2018-10-18T22:48:09.285Z,23.37
2018-10-18T22:50:41.708Z,29.53
2018-10-18T22:53:14.222Z,30.97
2018-10-18T22:55:46.413Z,32.90
2018-10-18T22:58:18.734Z,29.63
2018-10-18T23:00:51.022Z,27.40
2018-10-18T23:03:23.329Z,29.23
2018-10-18T23:05:55.604Z,29.37
2018-10-18T23:08:27.894Z,27.03
2018-10-18T23:11:00.236Z,25.93
2018-10-18T23:13:32.564Z,34.67
2018-10-18T23:16:04.937Z,31.60
2018-10-18T23:18:37.242Z,34.37
2018-10-18T23:21:09.657Z,42.20
2018-10-18T23:23:41.961Z,40.63
2018-10-18T23:26:14.214Z,43.27
2018-10-18T23:28:46.498Z,36.73
2018-10-18T23:31:18.943Z,41.47
2018-10-18T23:33:51.272Z,36.70
2018-10-18T23:36:23.809Z,42.70
2018-10-18T23:38:56.206Z,34.30
2018-10-18T23:41:28.484Z,32.00
2018-10-18T23:44:00.914Z,31.10
2018-10-18T23:46:33.365Z,35.80
2018-10-18T23:49:05.690Z,39.93
2018-10-18T23:51:38.013Z,40.00
2018-10-18T23:54:10.270Z,33.77
2018-10-18T23:56:42.598Z,40.80
2018-10-18T23:59:15.011Z,37.83
